sensor_id;sensor_type;location;lat;lon;timestamp;pressure;altitude;pressure_sealevel;temperature;humidity
8280;BME280;8335;42.646;23.380;2023-05-09T00:00:55;144948.94;;;13.65;100.00
8280;BME280;8335;42.646;23.380;2023-05-09T00:03:23;144936.47;;;13.60;100.00
8280;BME280;8335;42.646;23.380;2023-05-09T00:05:50;144938.94;;;13.61;100.00
8280;BME280;8335;42.646;23.380;2023-05-09T00:08:17;144933.97;;;13.59;100.00
8280;BME280;8335;42.646;23.380;2023-05-09T00:10:43;144933.97;;;13.59;100.00
8280;BME280;8335;42.646;23.380;2023-05-09T00:13:10;144916.53;;;13.52;100.00
8280;BME280;8335;42.646;23.380;2023-05-09T00:15:38;144899.09;;;13.44;100.00
8280;BME280;8335;42.646;23.380;2023-05-09T00:18:05;144917.78;;;13.52;100.00
8280;BME280;8335;42.646;23.380;2023-05-09T00:20:33;144933.97;;;13.59;100.00
8280;BME280;8335;42.646;23.380;2023-05-09T00:23:00;144915.28;;;13.51;100.00
8280;BME280;8335;42.646;23.380;2023-05-09T00:25:27;144946.41;;;13.64;100.00
8280;BME280;8335;42.646;23.380;2023-05-09T00:27:54;144943.91;;;13.63;100.00
8280;BME280;8335;42.646;23.380;2023-05-09T00:30:21;144950.19;;;13.65;100.00
8280;BME280;8335;42.646;23.380;2023-05-09T00:32:48;144943.91;;;13.63;100.00
8280;BME280;8335;42.646;23.380;2023-05-09T00:35:15;144952.66;;;13.66;100.00
8280;BME280;8335;42.646;23.380;2023-05-09T00:37:43;144956.41;;;13.68;100.00
8280;BME280;8335;42.646;23.380;2023-05-09T00:40:10;144953.91;;;13.67;100.00
8280;BME280;8335;42.646;23.380;2023-05-09T00:42:37;144937.72;;;13.60;100.00
8280;BME280;8335;42.646;23.380;2023-05-09T00:45:05;144963.84;;;13.71;100.00
8280;BME280;8335;42.646;23.380;2023-05-09T00:47:32;144975.09;;;13.75;100.00
8280;BME280;8335;42.646;23.380;2023-05-09T00:50:00;144976.34;;;13.76;100.00
8280;BME280;8335;42.646;23.380;2023-05-09T00:52:29;144982.53;;;13.78;100.00
8280;BME280;8335;42.646;23.380;2023-05-09T00:54:57;144960.13;;;13.69;100.00
8280;BME280;8335;42.646;23.380;2023-05-09T00:57:25;144971.34;;;13.74;100.00
8280;BME280;8335;42.646;23.380;2023-05-09T00:59:52;144924.00;;;13.55;100.00
8280;BME280;8335;42.646;23.380;2023-05-09T01:02:19;144970.13;;;13.73;100.00
8280;BME280;8335;42.646;23.380;2023-05-09T01:04:46;144965.09;;;13.71;100.00
8280;BME280;8335;42.646;23.380;2023-05-09T01:07:18;144958.88;;;13.69;100.00
8280;BME280;8335;42.646;23.380;2023-05-09T01:09:55;144948.94;;;13.65;100.00
8280;BME280;8335;42.646;23.380;2023-05-09T01:12:33;144955.16;;;13.67;100.00
8280;BME280;8335;42.646;23.380;2023-05-09T01:15:05;144886.63;;;13.39;100.00
8280;BME280;8335;42.646;23.380;2023-05-09T01:17:42;144958.88;;;13.69;100.00
8280;BME280;8335;42.646;23.380;2023-05-09T01:20:17;144967.63;;;13.72;100.00
8280;BME280;8335;42.646;23.380;2023-05-09T01:22:50;144901.56;;;13.45;100.00
8280;BME280;8335;42.646;23.380;2023-05-09T01:28:33;144962.59;;;13.70;100.00
8280;BME280;8335;42.646;23.380;2023-05-09T01:31:03;144948.94;;;13.65;100.00
8280;BME280;8335;42.646;23.380;2023-05-09T01:33:32;144957.63;;;13.68;100.00
8280;BME280;8335;42.646;23.380;2023-05-09T01:36:04;144960.13;;;13.69;100.00
8280;BME280;8335;42.646;23.380;2023-05-09T01:38:35;144962.59;;;13.70;100.00
8280;BME280;8335;42.646;23.380;2023-05-09T01:41:03;144957.63;;;13.68;99.77
8280;BME280;8335;42.646;23.380;2023-05-09T01:43:32;144962.59;;;13.70;99.76
8280;BME280;8335;42.646;23.380;2023-05-09T01:45:59;144971.34;;;13.74;99.37
8280;BME280;8335;42.646;23.380;2023-05-09T01:48:30;144966.38;;;13.72;98.88
8280;BME280;8335;42.646;23.380;2023-05-09T01:50:57;144966.38;;;13.72;98.44
8280;BME280;8335;42.646;23.380;2023-05-09T01:53:27;144970.13;;;13.73;98.02
8280;BME280;8335;42.646;23.380;2023-05-09T01:55:55;144958.88;;;13.69;97.91
8280;BME280;8335;42.646;23.380;2023-05-09T01:58:24;144971.34;;;13.74;97.94
8280;BME280;8335;42.646;23.380;2023-05-09T02:00:52;144977.56;;;13.76;97.61
8280;BME280;8335;42.646;23.380;2023-05-09T02:03:20;144966.38;;;13.72;97.91
8280;BME280;8335;42.646;23.380;2023-05-09T02:05:49;144966.38;;;13.72;97.99
8280;BME280;8335;42.646;23.380;2023-05-09T02:08:17;144970.13;;;13.73;98.36
8280;BME280;8335;42.646;23.380;2023-05-09T02:10:46;144970.13;;;13.73;98.48
8280;BME280;8335;42.646;23.380;2023-05-09T02:13:13;144972.59;;;13.74;99.37
8280;BME280;8335;42.646;23.380;2023-05-09T02:15:41;144980.06;;;13.77;99.00
8280;BME280;8335;42.646;23.380;2023-05-09T02:18:08;144978.81;;;13.77;99.20
8280;BME280;8335;42.646;23.380;2023-05-09T02:20:35;144983.84;;;13.79;99.50
8280;BME280;8335;42.646;23.380;2023-05-09T02:23:03;144973.84;;;13.75;99.48
8280;BME280;8335;42.646;23.380;2023-05-09T02:25:31;144987.56;;;13.81;99.09
8280;BME280;8335;42.646;23.380;2023-05-09T02:27:59;144986.31;;;13.80;98.62
8280;BME280;8335;42.646;23.380;2023-05-09T02:30:32;144988.81;;;13.81;98.08
8280;BME280;8335;42.646;23.380;2023-05-09T02:33:03;144983.84;;;13.79;97.56
8280;BME280;8335;42.646;23.380;2023-05-09T02:35:31;144978.81;;;13.77;97.10
8280;BME280;8335;42.646;23.380;2023-05-09T02:37:59;144972.59;;;13.74;97.26
8280;BME280;8335;42.646;23.380;2023-05-09T02:40:28;144966.38;;;13.72;97.89
8280;BME280;8335;42.646;23.380;2023-05-09T02:42:55;144967.63;;;13.72;97.94
8280;BME280;8335;42.646;23.380;2023-05-09T02:45:22;144960.13;;;13.69;97.63
8280;BME280;8335;42.646;23.380;2023-05-09T02:47:49;144941.44;;;13.62;97.96
8280;BME280;8335;42.646;23.380;2023-05-09T02:50:16;144931.50;;;13.58;98.58
8280;BME280;8335;42.646;23.380;2023-05-09T02:52:43;144896.59;;;13.43;99.32
8280;BME280;8335;42.646;23.380;2023-05-09T02:55:10;144905.31;;;13.47;100.00
8280;BME280;8335;42.646;23.380;2023-05-09T02:57:38;144885.38;;;13.39;100.00
8280;BME280;8335;42.646;23.380;2023-05-09T03:00:06;144879.16;;;13.36;100.00
8280;BME280;8335;42.646;23.380;2023-05-09T03:02:34;144865.44;;;13.31;100.00
8280;BME280;8335;42.646;23.380;2023-05-09T03:05:01;144850.50;;;13.25;100.00
8280;BME280;8335;42.646;23.380;2023-05-09T03:07:27;144852.97;;;13.26;100.00
8280;BME280;8335;42.646;23.380;2023-05-09T03:09:55;144849.25;;;13.24;100.00
8280;BME280;8335;42.646;23.380;2023-05-09T03:12:21;144799.38;;;13.04;100.00
8280;BME280;8335;42.646;23.380;2023-05-09T03:14:49;144849.25;;;13.24;100.00
8280;BME280;8335;42.646;23.380;2023-05-09T03:17:16;144816.81;;;13.11;100.00
8280;BME280;8335;42.646;23.380;2023-05-09T03:19:45;144804.34;;;13.06;100.00
8280;BME280;8335;42.646;23.380;2023-05-09T03:22:12;144789.38;;;13.00;100.00
8280;BME280;8335;42.646;23.380;2023-05-09T03:24:39;144803.09;;;13.05;100.00
8280;BME280;8335;42.646;23.380;2023-05-09T03:27:06;144804.34;;;13.06;100.00
8280;BME280;8335;42.646;23.380;2023-05-09T03:29:33;144791.91;;;13.01;100.00
8280;BME280;8335;42.646;23.380;2023-05-09T03:32:01;144754.50;;;12.85;100.00
8280;BME280;8335;42.646;23.380;2023-05-09T03:34:28;144727.16;;;12.74;100.00
8280;BME280;8335;42.646;23.380;2023-05-09T03:36:54;144717.16;;;12.70;100.00
8280;BME280;8335;42.646;23.380;2023-05-09T03:39:21;144678.56;;;12.54;100.00
8280;BME280;8335;42.646;23.380;2023-05-09T03:41:48;144642.47;;;12.39;100.00
8280;BME280;8335;42.646;23.380;2023-05-09T03:44:15;144618.81;;;12.30;100.00
8280;BME280;8335;42.646;23.380;2023-05-09T03:46:42;144603.88;;;12.24;100.00
8280;BME280;8335;42.646;23.380;2023-05-09T03:49:10;144632.50;;;12.35;100.00
8280;BME280;8335;42.646;23.380;2023-05-09T03:51:37;144639.97;;;12.38;100.00
8280;BME280;8335;42.646;23.380;2023-05-09T03:54:04;144636.25;;;12.37;100.00
8280;BME280;8335;42.646;23.380;2023-05-09T03:56:31;144642.47;;;12.39;100.00
8280;BME280;8335;42.646;23.380;2023-05-09T03:58:58;144678.56;;;12.54;100.00
8280;BME280;8335;42.646;23.380;2023-05-09T04:01:25;144698.47;;;12.62;100.00
8280;BME280;8335;42.646;23.380;2023-05-09T04:03:52;144794.41;;;13.02;100.00
8280;BME280;8335;42.646;23.380;2023-05-09T04:06:20;144968.88;;;13.73;100.00
8280;BME280;8335;42.646;23.380;2023-05-09T04:08:47;145184.56;;;14.61;100.00
8280;BME280;8335;42.646;23.380;2023-05-09T04:11:14;145424.13;;;15.59;95.84
8280;BME280;8335;42.646;23.380;2023-05-09T04:13:40;145608.91;;;16.34;89.87
8280;BME280;8335;42.646;23.380;2023-05-09T04:16:07;145742.63;;;16.89;85.45
8280;BME280;8335;42.646;23.380;2023-05-09T04:18:34;145776.34;;;17.02;83.34
8280;BME280;8335;42.646;23.380;2023-05-09T04:21:04;145783.81;;;17.05;82.91
8280;BME280;8335;42.646;23.380;2023-05-09T04:23:32;145806.34;;;17.15;82.76
8280;BME280;8335;42.646;23.380;2023-05-09T04:25:59;145873.78;;;17.42;82.68
8280;BME280;8335;42.646;23.380;2023-05-09T04:28:25;146025.09;;;18.04;79.48
8280;BME280;8335;42.646;23.380;2023-05-09T04:30:52;146236.53;;;18.90;76.16
8280;BME280;8335;42.646;23.380;2023-05-09T04:33:19;146549.50;;;20.17;71.07
8280;BME280;8335;42.646;23.380;2023-05-09T04:35:48;146909.16;;;21.63;64.70
8280;BME280;8335;42.646;23.380;2023-05-09T04:38:15;147280.50;;;23.14;58.91
8280;BME280;8335;42.646;23.380;2023-05-09T04:40:43;147550.47;;;24.24;53.62
8280;BME280;8335;42.646;23.380;2023-05-09T04:43:10;147777.94;;;25.16;50.04
8280;BME280;8335;42.646;23.380;2023-05-09T04:45:37;148019.28;;;26.14;47.03
8280;BME280;8335;42.646;23.380;2023-05-09T04:48:04;148153.91;;;26.68;44.34
8280;BME280;8335;42.646;23.380;2023-05-09T04:50:31;148130.03;;;26.58;44.06
8280;BME280;8335;42.646;23.380;2023-05-09T04:52:57;148179.06;;;26.78;43.62
8280;BME280;8335;42.646;23.380;2023-05-09T04:55:24;148024.34;;;26.16;44.11
8280;BME280;8335;42.646;23.380;2023-05-09T04:57:52;147749.03;;;25.04;46.73
8280;BME280;8335;42.646;23.380;2023-05-09T05:00:19;147364.59;;;23.48;50.05
8280;BME280;8335;42.646;23.380;2023-05-09T05:02:46;147186.38;;;22.76;53.07
8280;BME280;8335;42.646;23.380;2023-05-09T05:05:13;146881.59;;;21.52;57.50
8280;BME280;8335;42.646;23.380;2023-05-09T05:07:39;146627.19;;;20.49;61.26
8280;BME280;8335;42.646;23.380;2023-05-09T05:10:07;146384.16;;;19.50;64.19
8280;BME280;8335;42.646;23.380;2023-05-09T05:12:34;146214.00;;;18.81;67.60
8280;BME280;8335;42.646;23.380;2023-05-09T05:15:03;146087.66;;;18.29;70.81
8280;BME280;8335;42.646;23.380;2023-05-09T05:17:30;145986.34;;;17.88;73.24
8280;BME280;8335;42.646;23.380;2023-05-09T05:19:57;145893.81;;;17.50;74.30
8280;BME280;8335;42.646;23.380;2023-05-09T05:22:23;145868.81;;;17.40;74.97
8280;BME280;8335;42.646;23.380;2023-05-09T05:24:50;145761.34;;;16.96;77.73
8280;BME280;8335;42.646;23.380;2023-05-09T05:27:17;145630.13;;;16.43;79.81
8280;BME280;8335;42.646;23.380;2023-05-09T05:29:44;145535.25;;;16.04;82.17
8280;BME280;8335;42.646;23.380;2023-05-09T05:32:12;145544.00;;;16.08;83.06
8280;BME280;8335;42.646;23.380;2023-05-09T05:34:39;145504.03;;;15.91;84.06
8280;BME280;8335;42.646;23.380;2023-05-09T05:37:05;145487.78;;;15.85;84.32
8280;BME280;8335;42.646;23.380;2023-05-09T05:39:32;145471.56;;;15.78;84.91
8280;BME280;8335;42.646;23.380;2023-05-09T05:41:59;145407.91;;;15.52;86.01
8280;BME280;8335;42.646;23.380;2023-05-09T05:44:25;145274.38;;;14.98;88.58
8280;BME280;8335;42.646;23.380;2023-05-09T05:46:52;145333.03;;;15.22;88.58
8280;BME280;8335;42.646;23.380;2023-05-09T05:49:20;145323.03;;;15.18;89.27
8280;BME280;8335;42.646;23.380;2023-05-09T05:51:49;145326.78;;;15.19;87.94
8280;BME280;8335;42.646;23.380;2023-05-09T05:54:16;145296.81;;;15.07;88.13
8280;BME280;8335;42.646;23.380;2023-05-09T05:56:43;145273.13;;;14.97;88.47
8280;BME280;8335;42.646;23.380;2023-05-09T05:59:10;145309.31;;;15.12;88.86
8280;BME280;8335;42.646;23.380;2023-05-09T06:01:36;145224.47;;;14.77;88.63
8280;BME280;8335;42.646;23.380;2023-05-09T06:04:03;145193.34;;;14.65;88.86
8280;BME280;8335;42.646;23.380;2023-05-09T06:06:31;145190.78;;;14.64;89.58
8280;BME280;8335;42.646;23.380;2023-05-09T06:08:58;145169.59;;;14.55;90.78
8280;BME280;8335;42.646;23.380;2023-05-09T06:11:25;145139.63;;;14.43;91.45
8280;BME280;8335;42.646;23.380;2023-05-09T06:13:52;145125.94;;;14.37;92.47
8280;BME280;8335;42.646;23.380;2023-05-09T06:16:19;145129.66;;;14.39;93.30
8280;BME280;8335;42.646;23.380;2023-05-09T06:18:46;145172.09;;;14.56;91.90
8280;BME280;8335;42.646;23.380;2023-05-09T06:21:13;145145.88;;;14.45;91.14
8280;BME280;8335;42.646;23.380;2023-05-09T06:23:41;145173.34;;;14.56;91.56
8280;BME280;8335;42.646;23.380;2023-05-09T06:26:08;145177.13;;;14.58;91.53
8280;BME280;8335;42.646;23.380;2023-05-09T06:28:35;145178.38;;;14.58;91.82
8280;BME280;8335;42.646;23.380;2023-05-09T06:31:02;145209.50;;;14.71;90.60
8280;BME280;8335;42.646;23.380;2023-05-09T06:33:28;145219.50;;;14.75;90.02
8280;BME280;8335;42.646;23.380;2023-05-09T06:35:55;145244.41;;;14.85;89.13
8280;BME280;8335;42.646;23.380;2023-05-09T06:38:22;145261.88;;;14.93;89.33
8280;BME280;8335;42.646;23.380;2023-05-09T06:40:50;145243.19;;;14.85;88.89
8280;BME280;8335;42.646;23.380;2023-05-09T06:43:17;145241.94;;;14.84;89.79
8280;BME280;8335;42.646;23.380;2023-05-09T06:45:43;145290.59;;;15.04;87.67
8280;BME280;8335;42.646;23.380;2023-05-09T06:48:10;145328.00;;;15.20;85.99
8280;BME280;8335;42.646;23.380;2023-05-09T06:50:38;145350.50;;;15.29;86.22
8280;BME280;8335;42.646;23.380;2023-05-09T06:53:04;145350.50;;;15.29;85.02
8280;BME280;8335;42.646;23.380;2023-05-09T06:55:31;145357.97;;;15.32;85.18
8280;BME280;8335;42.646;23.380;2023-05-09T06:57:59;145209.50;;;14.71;84.06
8280;BME280;8335;42.646;23.380;2023-05-09T07:00:26;145367.97;;;15.36;83.99
8280;BME280;8335;42.646;23.380;2023-05-09T07:02:53;145365.44;;;15.35;82.04
8280;BME280;8335;42.646;23.380;2023-05-09T07:05:28;145350.50;;;15.29;79.70
8280;BME280;8335;42.646;23.380;2023-05-09T07:07:55;145379.19;;;15.40;79.55
8280;BME280;8335;42.646;23.380;2023-05-09T07:10:21;145394.16;;;15.47;79.61
8280;BME280;8335;42.646;23.380;2023-05-09T07:12:48;145409.13;;;15.53;80.25
8280;BME280;8335;42.646;23.380;2023-05-09T07:15:15;145364.19;;;15.34;81.10
8280;BME280;8335;42.646;23.380;2023-05-09T07:17:42;145370.47;;;15.37;79.85
8280;BME280;8335;42.646;23.380;2023-05-09T07:20:09;145296.81;;;15.07;79.06
8280;BME280;8335;42.646;23.380;2023-05-09T07:22:37;145294.31;;;15.06;79.92
8280;BME280;8335;42.646;23.380;2023-05-09T07:25:06;145303.09;;;15.09;80.97
8280;BME280;8335;42.646;23.380;2023-05-09T07:27:33;145301.84;;;15.09;82.39
8280;BME280;8335;42.646;23.380;2023-05-09T07:30:00;145365.44;;;15.35;81.42
8280;BME280;8335;42.646;23.380;2023-05-09T07:32:27;145390.44;;;15.45;81.12
8280;BME280;8335;42.646;23.380;2023-05-09T07:34:53;145402.91;;;15.50;80.69
8280;BME280;8335;42.646;23.380;2023-05-09T07:37:20;145344.25;;;15.26;79.21
8280;BME280;8335;42.646;23.380;2023-05-09T07:39:48;145335.53;;;15.23;80.09
8280;BME280;8335;42.646;23.380;2023-05-09T07:42:16;145321.78;;;15.17;81.37
8280;BME280;8335;42.646;23.380;2023-05-09T07:44:43;145315.56;;;15.14;82.00
8280;BME280;8335;42.646;23.380;2023-05-09T07:47:09;145300.59;;;15.08;82.83
8280;BME280;8335;42.646;23.380;2023-05-09T07:49:36;145351.75;;;15.29;82.23
8280;BME280;8335;42.646;23.380;2023-05-09T07:52:04;145370.47;;;15.37;82.56
8280;BME280;8335;42.646;23.380;2023-05-09T07:54:31;145441.66;;;15.66;81.02
8280;BME280;8335;42.646;23.380;2023-05-09T07:56:59;145455.34;;;15.72;78.94
8280;BME280;8335;42.646;23.380;2023-05-09T07:59:26;145390.44;;;15.45;79.61
8280;BME280;8335;42.646;23.380;2023-05-09T08:01:52;145424.13;;;15.59;80.18
8280;BME280;8335;42.646;23.380;2023-05-09T08:04:19;145450.34;;;15.69;79.73
8280;BME280;8335;42.646;23.380;2023-05-09T08:06:46;145506.50;;;15.92;79.60
8280;BME280;8335;42.646;23.380;2023-05-09T08:09:13;145520.25;;;15.98;76.90
8280;BME280;8335;42.646;23.380;2023-05-09T08:11:40;145482.81;;;15.83;77.52
8280;BME280;8335;42.646;23.380;2023-05-09T08:14:08;145431.63;;;15.62;78.66
8280;BME280;8335;42.646;23.380;2023-05-09T08:16:35;145461.59;;;15.74;78.35
8280;BME280;8335;42.646;23.380;2023-05-09T08:19:02;145549.00;;;16.10;77.02
8280;BME280;8335;42.646;23.380;2023-05-09T08:21:28;145742.63;;;16.89;74.32
8280;BME280;8335;42.646;23.380;2023-05-09T08:23:55;145987.59;;;17.88;69.35
8280;BME280;8335;42.646;23.380;2023-05-09T08:26:22;146180.25;;;18.67;65.67
8280;BME280;8335;42.646;23.380;2023-05-09T08:28:49;146355.41;;;19.38;62.52
8280;BME280;8335;42.646;23.380;2023-05-09T08:31:17;146441.84;;;19.73;60.93
8280;BME280;8335;42.646;23.380;2023-05-09T08:33:43;146332.91;;;19.29;60.84
8280;BME280;8335;42.646;23.380;2023-05-09T08:36:10;146216.50;;;18.82;63.11
8280;BME280;8335;42.646;23.380;2023-05-09T08:38:37;146148.91;;;18.54;64.89
8280;BME280;8335;42.646;23.380;2023-05-09T08:41:05;146148.91;;;18.54;64.38
8280;BME280;8335;42.646;23.380;2023-05-09T08:43:32;146140.19;;;18.51;64.75
8280;BME280;8335;42.646;23.380;2023-05-09T08:46:02;146101.38;;;18.35;64.35
8280;BME280;8335;42.646;23.380;2023-05-09T08:48:33;145961.34;;;17.78;67.17
8280;BME280;8335;42.646;23.380;2023-05-09T08:51:02;145847.56;;;17.31;69.50
8280;BME280;8335;42.646;23.380;2023-05-09T08:53:29;145708.88;;;16.75;70.83
8280;BME280;8335;42.646;23.380;2023-05-09T08:55:57;145678.84;;;16.63;73.26
8280;BME280;8335;42.646;23.380;2023-05-09T08:58:24;145700.13;;;16.71;71.91
8280;BME280;8335;42.646;23.380;2023-05-09T09:00:51;145802.56;;;17.13;70.17
8280;BME280;8335;42.646;23.380;2023-05-09T09:03:20;145678.84;;;16.63;72.82
8280;BME280;8335;42.646;23.380;2023-05-09T09:05:48;145565.22;;;16.16;75.48
8280;BME280;8335;42.646;23.380;2023-05-09T09:08:16;145444.13;;;15.67;77.89
8280;BME280;8335;42.646;23.380;2023-05-09T09:10:44;145470.31;;;15.78;78.83
8280;BME280;8335;42.646;23.380;2023-05-09T09:13:13;145444.13;;;15.67;78.55
8280;BME280;8335;42.646;23.380;2023-05-09T09:15:42;145439.16;;;15.65;78.75
8280;BME280;8335;42.646;23.380;2023-05-09T09:18:11;145349.22;;;15.28;79.06
8280;BME280;8335;42.646;23.380;2023-05-09T09:20:45;145254.44;;;14.90;80.08
8280;BME280;8335;42.646;23.380;2023-05-09T09:23:17;145268.16;;;14.95;81.94
8280;BME280;8335;42.646;23.380;2023-05-09T09:25:45;145195.81;;;14.66;83.55
8280;BME280;8335;42.646;23.380;2023-05-09T09:28:12;145236.97;;;14.82;83.59
8280;BME280;8335;42.646;23.380;2023-05-09T09:30:42;145210.78;;;14.72;84.48
8280;BME280;8335;42.646;23.380;2023-05-09T09:33:17;145153.41;;;14.48;84.69
8280;BME280;8335;42.646;23.380;2023-05-09T09:35:46;145276.88;;;14.99;83.85
8280;BME280;8335;42.646;23.380;2023-05-09T09:38:15;145281.88;;;15.01;83.11
8280;BME280;8335;42.646;23.380;2023-05-09T09:40:48;145305.56;;;15.10;81.60
8280;BME280;8335;42.646;23.380;2023-05-09T09:43:15;145264.41;;;14.94;83.61
8280;BME280;8335;42.646;23.380;2023-05-09T09:45:41;145263.19;;;14.93;83.50
8280;BME280;8335;42.646;23.380;2023-05-09T09:48:08;145331.75;;;15.21;81.03
8280;BME280;8335;42.646;23.380;2023-05-09T09:50:35;145365.44;;;15.35;79.82
8280;BME280;8335;42.646;23.380;2023-05-09T09:53:02;145361.72;;;15.33;81.03
8280;BME280;8335;42.646;23.380;2023-05-09T09:55:30;145475.34;;;15.80;79.36
8280;BME280;8335;42.646;23.380;2023-05-09T09:57:57;145637.66;;;16.46;76.48
8280;BME280;8335;42.646;23.380;2023-05-09T10:00:26;145835.06;;;17.26;72.15
8280;BME280;8335;42.646;23.380;2023-05-09T10:02:54;145827.59;;;17.23;73.58
8280;BME280;8335;42.646;23.380;2023-05-09T10:05:22;145792.59;;;17.09;73.68
8280;BME280;8335;42.646;23.380;2023-05-09T10:07:50;145796.34;;;17.11;73.35
8280;BME280;8335;42.646;23.380;2023-05-09T10:10:18;145818.81;;;17.20;74.56
8280;BME280;8335;42.646;23.380;2023-05-09T10:12:47;145821.31;;;17.21;74.17
8280;BME280;8335;42.646;23.380;2023-05-09T10:15:16;145847.56;;;17.31;73.29
8280;BME280;8335;42.646;23.380;2023-05-09T10:17:45;145837.56;;;17.27;72.67
8280;BME280;8335;42.646;23.380;2023-05-09T10:20:13;145783.81;;;17.05;73.34
8280;BME280;8335;42.646;23.380;2023-05-09T10:22:41;145741.38;;;16.88;74.49
8280;BME280;8335;42.646;23.380;2023-05-09T10:25:13;145688.84;;;16.67;76.01
8280;BME280;8335;42.646;23.380;2023-05-09T10:27:46;145660.13;;;16.55;76.16
8280;BME280;8335;42.646;23.380;2023-05-09T10:30:16;145630.13;;;16.43;76.49
8280;BME280;8335;42.646;23.380;2023-05-09T10:32:47;145642.63;;;16.48;77.11
8280;BME280;8335;42.646;23.380;2023-05-09T10:35:19;145640.13;;;16.47;77.20
8280;BME280;8335;42.646;23.380;2023-05-09T10:37:49;145628.88;;;16.42;77.17
8280;BME280;8335;42.646;23.380;2023-05-09T10:40:16;145555.22;;;16.12;77.31
8280;BME280;8335;42.646;23.380;2023-05-09T10:42:46;145520.25;;;15.98;78.11
8280;BME280;8335;42.646;23.380;2023-05-09T10:45:13;145460.38;;;15.74;80.31
8280;BME280;8335;42.646;23.380;2023-05-09T10:47:42;145464.09;;;15.75;80.40
8280;BME280;8335;42.646;23.380;2023-05-09T10:50:10;145430.41;;;15.61;80.76
8280;BME280;8335;42.646;23.380;2023-05-09T10:53:07;145409.13;;;15.53;81.70
8280;BME280;8335;42.646;23.380;2023-05-09T10:55:47;145449.13;;;15.69;80.97
8280;BME280;8335;42.646;23.380;2023-05-09T10:58:22;145460.38;;;15.74;80.67
8280;BME280;8335;42.646;23.380;2023-05-09T11:00:50;145449.13;;;15.69;81.03
8280;BME280;8335;42.646;23.380;2023-05-09T11:03:17;145377.94;;;15.40;82.15
8280;BME280;8335;42.646;23.380;2023-05-09T11:05:45;145362.94;;;15.34;83.28
8280;BME280;8335;42.646;23.380;2023-05-09T11:08:20;145371.72;;;15.37;82.44
8280;BME280;8335;42.646;23.380;2023-05-09T11:10:48;145304.31;;;15.10;82.93
8280;BME280;8335;42.646;23.380;2023-05-09T11:13:17;145278.09;;;14.99;83.80
8280;BME280;8335;42.646;23.380;2023-05-09T11:18:51;145399.13;;;15.49;81.92
8280;BME280;8335;42.646;23.380;2023-05-09T11:21:19;145329.25;;;15.20;82.68
8280;BME280;8335;42.646;23.380;2023-05-09T11:23:47;145320.56;;;15.17;83.00
8280;BME280;8335;42.646;23.380;2023-05-09T11:26:14;145362.94;;;15.34;82.58
8280;BME280;8335;42.646;23.380;2023-05-09T11:28:51;145326.78;;;15.19;83.68
8280;BME280;8335;42.646;23.380;2023-05-09T11:31:18;145382.91;;;15.42;82.78
8280;BME280;8335;42.646;23.380;2023-05-09T11:33:48;145394.16;;;15.47;81.84
8280;BME280;8335;42.646;23.380;2023-05-09T11:36:27;145259.41;;;14.92;84.09
8280;BME280;8335;42.646;23.380;2023-05-09T11:39:01;145189.56;;;14.63;85.43
8280;BME280;8335;42.646;23.380;2023-05-09T11:41:28;145219.50;;;14.75;85.56
8280;BME280;8335;42.646;23.380;2023-05-09T11:43:55;145173.34;;;14.56;85.19
8280;BME280;8335;42.646;23.380;2023-05-09T11:46:24;145160.91;;;14.51;87.19
8280;BME280;8335;42.646;23.380;2023-05-09T11:48:50;145100.97;;;14.27;86.57
8280;BME280;8335;42.646;23.380;2023-05-09T11:51:19;145168.38;;;14.54;85.16
8280;BME280;8335;42.646;23.380;2023-05-09T11:53:49;145202.03;;;14.68;84.01
8280;BME280;8335;42.646;23.380;2023-05-09T11:56:19;145213.28;;;14.73;84.12
8280;BME280;8335;42.646;23.380;2023-05-09T11:58:49;145219.50;;;14.75;84.49
8280;BME280;8335;42.646;23.380;2023-05-09T12:01:17;145255.66;;;14.90;84.16
8280;BME280;8335;42.646;23.380;2023-05-09T12:03:44;145255.66;;;14.90;82.96
8280;BME280;8335;42.646;23.380;2023-05-09T12:06:14;145319.31;;;15.16;82.29
8280;BME280;8335;42.646;23.380;2023-05-09T12:08:42;145316.81;;;15.15;82.09
8280;BME280;8335;42.646;23.380;2023-05-09T12:11:11;145223.22;;;14.77;83.92
8280;BME280;8335;42.646;23.380;2023-05-09T12:13:44;145215.75;;;14.74;85.15
8280;BME280;8335;42.646;23.380;2023-05-09T12:16:11;145137.13;;;14.42;85.67
8280;BME280;8335;42.646;23.380;2023-05-09T12:18:43;145124.69;;;14.37;86.50
8280;BME280;8335;42.646;23.380;2023-05-09T12:21:10;145106.00;;;14.29;86.89
8280;BME280;8335;42.646;23.380;2023-05-09T12:23:37;145117.19;;;14.33;85.94
8280;BME280;8335;42.646;23.380;2023-05-09T12:26:03;145168.38;;;14.54;84.95
8280;BME280;8335;42.646;23.380;2023-05-09T12:28:33;145068.56;;;14.14;86.47
8280;BME280;8335;42.646;23.380;2023-05-09T12:31:00;144982.53;;;13.78;89.21
8280;BME280;8335;42.646;23.380;2023-05-09T12:33:29;144889.09;;;13.40;91.50
8280;BME280;8335;42.646;23.380;2023-05-09T12:36:03;144891.59;;;13.41;91.75
8280;BME280;8335;42.646;23.380;2023-05-09T12:38:31;144900.34;;;13.45;91.41
8280;BME280;8335;42.646;23.380;2023-05-09T12:41:02;144867.94;;;13.32;92.56
8280;BME280;8335;42.646;23.380;2023-05-09T12:43:30;144814.31;;;13.10;94.03
8280;BME280;8335;42.646;23.380;2023-05-09T12:45:59;144790.66;;;13.00;94.28
8280;BME280;8335;42.646;23.380;2023-05-09T12:48:27;144799.38;;;13.04;94.20
8280;BME280;8335;42.646;23.380;2023-05-09T12:50:54;144771.94;;;12.92;94.75
8280;BME280;8335;42.646;23.380;2023-05-09T12:53:25;144745.81;;;12.82;95.83
8280;BME280;8335;42.646;23.380;2023-05-09T12:55:55;144613.81;;;12.28;97.52
8280;BME280;8335;42.646;23.380;2023-05-09T12:58:28;144666.09;;;12.49;99.59
8280;BME280;8335;42.646;23.380;2023-05-09T13:00:57;144668.63;;;12.50;100.00
8280;BME280;8335;42.646;23.380;2023-05-09T13:03:25;144708.47;;;12.66;99.02
8280;BME280;8335;42.646;23.380;2023-05-09T13:05:56;144724.66;;;12.73;99.51
8280;BME280;8335;42.646;23.380;2023-05-09T13:08:23;144707.22;;;12.66;99.85